sensor_id;sensor_type;location;lat;lon;timestamp;temperature;humidity
31133;DHT22;17779;50.942;4.026;2022-08-11T00:01:09;21.50;99.90
31133;DHT22;17779;50.942;4.026;2022-08-11T00:03:35;21.50;99.90
31133;DHT22;17779;50.942;4.026;2022-08-11T00:06:01;21.50;99.90
31133;DHT22;17779;50.942;4.026;2022-08-11T00:08:30;21.60;99.90
31133;DHT22;17779;50.942;4.026;2022-08-11T00:11:01;21.60;99.90
31133;DHT22;17779;50.942;4.026;2022-08-11T00:15:59;21.50;99.90
31133;DHT22;17779;50.942;4.026;2022-08-11T00:18:25;21.60;99.90
31133;DHT22;17779;50.942;4.026;2022-08-11T00:20:50;21.60;99.90
31133;DHT22;17779;50.942;4.026;2022-08-11T00:23:21;21.70;99.90
31133;DHT22;17779;50.942;4.026;2022-08-11T00:25:50;21.90;99.90
31133;DHT22;17779;50.942;4.026;2022-08-11T00:28:26;22.00;99.90
31133;DHT22;17779;50.942;4.026;2022-08-11T00:30:53;22.10;99.90
31133;DHT22;17779;50.942;4.026;2022-08-11T00:33:19;22.30;99.90
31133;DHT22;17779;50.942;4.026;2022-08-11T00:35:45;22.30;99.90
31133;DHT22;17779;50.942;4.026;2022-08-11T00:38:11;22.20;99.90
31133;DHT22;17779;50.942;4.026;2022-08-11T00:43:33;21.80;99.90
31133;DHT22;17779;50.942;4.026;2022-08-11T00:48:30;21.60;99.90
31133;DHT22;17779;50.942;4.026;2022-08-11T01:19:55;21.60;99.90
31133;DHT22;17779;50.942;4.026;2022-08-11T01:25:29;21.80;99.90
31133;DHT22;17779;50.942;4.026;2022-08-11T01:30:59;21.50;99.90
31133;DHT22;17779;50.942;4.026;2022-08-11T01:33:53;21.40;99.90
31133;DHT22;17779;50.942;4.026;2022-08-11T01:38:58;21.40;99.90
31133;DHT22;17779;50.942;4.026;2022-08-11T01:41:35;21.50;99.90
31133;DHT22;17779;50.942;4.026;2022-08-11T02:03:35;20.40;99.90
31133;DHT22;17779;50.942;4.026;2022-08-11T02:07:08;20.40;99.90
31133;DHT22;17779;50.942;4.026;2022-08-11T02:09:40;20.60;99.90
31133;DHT22;17779;50.942;4.026;2022-08-11T02:12:24;20.90;99.90
31133;DHT22;17779;50.942;4.026;2022-08-11T02:17:22;21.00;99.90
31133;DHT22;17779;50.942;4.026;2022-08-11T02:20:00;21.10;99.90
31133;DHT22;17779;50.942;4.026;2022-08-11T02:22:57;20.90;99.90
31133;DHT22;17779;50.942;4.026;2022-08-11T02:25:55;20.70;99.90
31133;DHT22;17779;50.942;4.026;2022-08-11T02:28:26;20.70;99.90
31133;DHT22;17779;50.942;4.026;2022-08-11T02:31:02;20.70;99.90
31133;DHT22;17779;50.942;4.026;2022-08-11T02:33:50;20.60;99.90
31133;DHT22;17779;50.942;4.026;2022-08-11T02:36:23;20.60;99.90
31133;DHT22;17779;50.942;4.026;2022-08-11T02:52:30;20.80;99.90
31133;DHT22;17779;50.942;4.026;2022-08-11T03:00:29;20.90;99.90
31133;DHT22;17779;50.942;4.026;2022-08-11T03:05:48;20.50;99.90
31133;DHT22;17779;50.942;4.026;2022-08-11T03:15:01;20.50;99.90
31133;DHT22;17779;50.942;4.026;2022-08-11T03:17:29;20.30;99.90
31133;DHT22;17779;50.942;4.026;2022-08-11T03:20:20;20.00;99.90
31133;DHT22;17779;50.942;4.026;2022-08-11T03:22:50;19.90;99.90
31133;DHT22;17779;50.942;4.026;2022-08-11T03:25:20;20.00;99.90
31133;DHT22;17779;50.942;4.026;2022-08-11T03:35:41;19.60;99.90
31133;DHT22;17779;50.942;4.026;2022-08-11T03:38:10;19.60;99.90
31133;DHT22;17779;50.942;4.026;2022-08-11T03:40:43;19.60;99.90
31133;DHT22;17779;50.942;4.026;2022-08-11T03:46:01;19.30;99.90
31133;DHT22;17779;50.942;4.026;2022-08-11T04:02:07;19.60;99.90
31133;DHT22;17779;50.942;4.026;2022-08-11T04:07:23;19.70;99.90
31133;DHT22;17779;50.942;4.026;2022-08-11T04:10:59;19.50;99.90
31133;DHT22;17779;50.942;4.026;2022-08-11T04:31:33;19.20;99.90
31133;DHT22;17779;50.942;4.026;2022-08-11T04:48:13;19.30;99.90
31133;DHT22;17779;50.942;4.026;2022-08-11T04:51:20;19.30;99.90
31133;DHT22;17779;50.942;4.026;2022-08-11T04:56:58;19.40;99.90
31133;DHT22;17779;50.942;4.026;2022-08-11T05:00:02;19.50;99.90
31133;DHT22;17779;50.942;4.026;2022-08-11T05:13:06;19.50;99.90
31133;DHT22;17779;50.942;4.026;2022-08-11T05:15:55;19.60;99.90
31133;DHT22;17779;50.942;4.026;2022-08-11T05:18:50;19.60;99.90
31133;DHT22;17779;50.942;4.026;2022-08-11T05:21:35;19.50;99.90
31133;DHT22;17779;50.942;4.026;2022-08-11T05:24:21;19.30;99.90
31133;DHT22;17779;50.942;4.026;2022-08-11T05:27:09;19.40;99.90
31133;DHT22;17779;50.942;4.026;2022-08-11T05:30:02;19.40;99.90
31133;DHT22;17779;50.942;4.026;2022-08-11T05:32:54;19.50;99.90
31133;DHT22;17779;50.942;4.026;2022-08-11T05:35:40;19.70;99.90
31133;DHT22;17779;50.942;4.026;2022-08-11T05:38:26;20.00;99.90
31133;DHT22;17779;50.942;4.026;2022-08-11T05:41:11;20.00;99.90
31133;DHT22;17779;50.942;4.026;2022-08-11T05:43:59;20.10;99.90
31133;DHT22;17779;50.942;4.026;2022-08-11T05:46:44;20.10;99.90
31133;DHT22;17779;50.942;4.026;2022-08-11T05:49:29;20.30;99.90
31133;DHT22;17779;50.942;4.026;2022-08-11T05:52:32;20.40;99.90
31133;DHT22;17779;50.942;4.026;2022-08-11T05:55:16;20.30;99.90
31133;DHT22;17779;50.942;4.026;2022-08-11T05:58:02;20.40;99.90
31133;DHT22;17779;50.942;4.026;2022-08-11T06:00:28;20.40;99.90
31133;DHT22;17779;50.942;4.026;2022-08-11T06:02:55;20.50;99.90
31133;DHT22;17779;50.942;4.026;2022-08-11T06:05:21;20.70;99.90
31133;DHT22;17779;50.942;4.026;2022-08-11T06:07:47;20.80;99.90
31133;DHT22;17779;50.942;4.026;2022-08-11T06:10:14;21.00;99.90
31133;DHT22;17779;50.942;4.026;2022-08-11T06:12:51;21.00;99.90
31133;DHT22;17779;50.942;4.026;2022-08-11T06:15:17;21.00;99.90
31133;DHT22;17779;50.942;4.026;2022-08-11T06:17:44;21.00;99.90
31133;DHT22;17779;50.942;4.026;2022-08-11T06:20:10;21.00;99.90
31133;DHT22;17779;50.942;4.026;2022-08-11T06:22:37;21.20;99.90
31133;DHT22;17779;50.942;4.026;2022-08-11T06:25:04;21.50;99.90
31133;DHT22;17779;50.942;4.026;2022-08-11T06:27:32;21.70;99.90
31133;DHT22;17779;50.942;4.026;2022-08-11T06:29:59;21.50;99.90
31133;DHT22;17779;50.942;4.026;2022-08-11T06:32:30;21.60;99.90
31133;DHT22;17779;50.942;4.026;2022-08-11T06:35:02;21.60;99.90
31133;DHT22;17779;50.942;4.026;2022-08-11T06:38:35;21.60;99.90
31133;DHT22;17779;50.942;4.026;2022-08-11T06:45:32;22.30;99.90
31133;DHT22;17779;50.942;4.026;2022-08-11T06:48:01;22.40;99.90
31133;DHT22;17779;50.942;4.026;2022-08-11T06:50:30;22.60;99.90
31133;DHT22;17779;50.942;4.026;2022-08-11T06:53:19;22.70;99.90
31133;DHT22;17779;50.942;4.026;2022-08-11T06:55:46;23.20;99.90
31133;DHT22;17779;50.942;4.026;2022-08-11T06:58:32;24.00;99.90
31133;DHT22;17779;50.942;4.026;2022-08-11T07:01:22;24.70;99.90
31133;DHT22;17779;50.942;4.026;2022-08-11T07:03:54;26.20;99.90
31133;DHT22;17779;50.942;4.026;2022-08-11T07:06:46;27.50;99.90
31133;DHT22;17779;50.942;4.026;2022-08-11T07:09:42;27.60;99.90
31133;DHT22;17779;50.942;4.026;2022-08-11T07:12:37;28.80;99.90
31133;DHT22;17779;50.942;4.026;2022-08-11T07:15:24;31.20;97.50
31133;DHT22;17779;50.942;4.026;2022-08-11T07:18:07;30.20;96.80
31133;DHT22;17779;50.942;4.026;2022-08-11T07:20:53;30.80;95.30
31133;DHT22;17779;50.942;4.026;2022-08-11T07:23:38;33.10;93.20
31133;DHT22;17779;50.942;4.026;2022-08-11T07:26:23;33.50;90.20
31133;DHT22;17779;50.942;4.026;2022-08-11T07:29:09;31.80;90.80
31133;DHT22;17779;50.942;4.026;2022-08-11T07:31:49;32.30;90.90
31133;DHT22;17779;50.942;4.026;2022-08-11T07:36:45;33.00;87.60
31133;DHT22;17779;50.942;4.026;2022-08-11T07:39:18;32.60;87.20
31133;DHT22;17779;50.942;4.026;2022-08-11T07:41:45;34.20;83.90
31133;DHT22;17779;50.942;4.026;2022-08-11T07:44:11;34.50;82.10
31133;DHT22;17779;50.942;4.026;2022-08-11T07:46:43;33.40;81.90
31133;DHT22;17779;50.942;4.026;2022-08-11T07:49:28;33.90;80.70
31133;DHT22;17779;50.942;4.026;2022-08-11T07:52:14;33.80;82.70
31133;DHT22;17779;50.942;4.026;2022-08-11T07:54:55;35.80;79.60
31133;DHT22;17779;50.942;4.026;2022-08-11T07:57:22;34.80;77.20
31133;DHT22;17779;50.942;4.026;2022-08-11T08:00:06;34.60;77.30
31133;DHT22;17779;50.942;4.026;2022-08-11T08:02:51;34.30;77.70
31133;DHT22;17779;50.942;4.026;2022-08-11T08:05:35;36.30;74.30
31133;DHT22;17779;50.942;4.026;2022-08-11T08:08:19;36.40;72.20
31133;DHT22;17779;50.942;4.026;2022-08-11T08:11:04;37.60;71.50
31133;DHT22;17779;50.942;4.026;2022-08-11T08:13:48;38.30;69.30
31133;DHT22;17779;50.942;4.026;2022-08-11T08:16:33;39.80;66.90
31133;DHT22;17779;50.942;4.026;2022-08-11T08:19:18;40.00;64.00
31133;DHT22;17779;50.942;4.026;2022-08-11T08:21:44;37.90;63.90
31133;DHT22;17779;50.942;4.026;2022-08-11T08:24:11;38.30;65.00
31133;DHT22;17779;50.942;4.026;2022-08-11T08:26:37;38.70;63.90
31133;DHT22;17779;50.942;4.026;2022-08-11T08:29:21;38.20;63.30
31133;DHT22;17779;50.942;4.026;2022-08-11T08:32:06;38.30;62.80
31133;DHT22;17779;50.942;4.026;2022-08-11T08:34:31;39.60;61.00
31133;DHT22;17779;50.942;4.026;2022-08-11T08:36:57;40.00;60.40
31133;DHT22;17779;50.942;4.026;2022-08-11T08:39:24;38.20;59.90
31133;DHT22;17779;50.942;4.026;2022-08-11T08:41:53;37.00;61.90
31133;DHT22;17779;50.942;4.026;2022-08-11T08:44:20;38.20;59.70
31133;DHT22;17779;50.942;4.026;2022-08-11T08:46:50;38.60;59.10
31133;DHT22;17779;50.942;4.026;2022-08-11T08:49:21;37.80;59.90
31133;DHT22;17779;50.942;4.026;2022-08-11T08:51:48;39.20;59.10
31133;DHT22;17779;50.942;4.026;2022-08-11T08:54:18;39.60;58.00
31133;DHT22;17779;50.942;4.026;2022-08-11T08:56:44;39.30;58.60
31133;DHT22;17779;50.942;4.026;2022-08-11T08:59:11;40.40;56.90
31133;DHT22;17779;50.942;4.026;2022-08-11T09:01:50;41.10;56.10
31133;DHT22;17779;50.942;4.026;2022-08-11T09:04:17;40.70;55.50
31133;DHT22;17779;50.942;4.026;2022-08-11T09:06:44;39.70;56.40
31133;DHT22;17779;50.942;4.026;2022-08-11T09:09:11;38.40;56.60
31133;DHT22;17779;50.942;4.026;2022-08-11T09:11:38;37.50;58.20
31133;DHT22;17779;50.942;4.026;2022-08-11T09:14:24;37.10;57.60
31133;DHT22;17779;50.942;4.026;2022-08-11T09:17:10;38.10;56.70
31133;DHT22;17779;50.942;4.026;2022-08-11T09:19:36;37.50;56.80
31133;DHT22;17779;50.942;4.026;2022-08-11T09:22:02;39.90;55.80
31133;DHT22;17779;50.942;4.026;2022-08-11T09:24:47;39.50;55.10
31133;DHT22;17779;50.942;4.026;2022-08-11T09:27:32;39.90;54.10
31133;DHT22;17779;50.942;4.026;2022-08-11T09:29:58;40.00;54.80
31133;DHT22;17779;50.942;4.026;2022-08-11T09:32:24;40.90;53.90
31133;DHT22;17779;50.942;4.026;2022-08-11T09:34:51;41.60;53.00
31133;DHT22;17779;50.942;4.026;2022-08-11T09:37:17;41.00;52.40
31133;DHT22;17779;50.942;4.026;2022-08-11T09:40:02;40.80;52.40
31133;DHT22;17779;50.942;4.026;2022-08-11T09:42:46;39.60;52.90
31133;DHT22;17779;50.942;4.026;2022-08-11T09:45:31;37.90;55.00
31133;DHT22;17779;50.942;4.026;2022-08-11T09:47:58;39.20;54.80
31133;DHT22;17779;50.942;4.026;2022-08-11T09:50:24;40.10;53.40
31133;DHT22;17779;50.942;4.026;2022-08-11T09:52:50;40.10;52.90
31133;DHT22;17779;50.942;4.026;2022-08-11T09:55:15;40.50;52.40
31133;DHT22;17779;50.942;4.026;2022-08-11T09:57:45;41.00;51.90
31133;DHT22;17779;50.942;4.026;2022-08-11T10:00:30;39.20;52.80
31133;DHT22;17779;50.942;4.026;2022-08-11T10:02:56;39.80;52.30
31133;DHT22;17779;50.942;4.026;2022-08-11T10:05:22;38.60;53.10
31133;DHT22;17779;50.942;4.026;2022-08-11T10:08:08;39.10;53.40
31133;DHT22;17779;50.942;4.026;2022-08-11T10:10:36;40.10;52.80
31133;DHT22;17779;50.942;4.026;2022-08-11T10:13:07;40.80;51.90
31133;DHT22;17779;50.942;4.026;2022-08-11T10:15:33;40.90;51.30
31133;DHT22;17779;50.942;4.026;2022-08-11T10:18:09;40.40;51.70
31133;DHT22;17779;50.942;4.026;2022-08-11T10:21:01;41.00;51.40
31133;DHT22;17779;50.942;4.026;2022-08-11T10:23:30;42.30;50.60
31133;DHT22;17779;50.942;4.026;2022-08-11T10:26:16;41.10;50.90
31133;DHT22;17779;50.942;4.026;2022-08-11T10:29:01;41.90;49.60
31133;DHT22;17779;50.942;4.026;2022-08-11T10:31:27;41.20;50.40
31133;DHT22;17779;50.942;4.026;2022-08-11T10:34:11;40.70;51.00
31133;DHT22;17779;50.942;4.026;2022-08-11T10:36:39;41.80;49.50
31133;DHT22;17779;50.942;4.026;2022-08-11T10:39:12;41.80;50.30
31133;DHT22;17779;50.942;4.026;2022-08-11T10:41:42;42.80;49.20
31133;DHT22;17779;50.942;4.026;2022-08-11T10:44:27;40.10;50.30
31133;DHT22;17779;50.942;4.026;2022-08-11T10:46:53;39.70;50.70
31133;DHT22;17779;50.942;4.026;2022-08-11T10:49:37;38.70;51.70
31133;DHT22;17779;50.942;4.026;2022-08-11T10:52:04;39.50;51.10
31133;DHT22;17779;50.942;4.026;2022-08-11T10:54:48;41.20;50.50
31133;DHT22;17779;50.942;4.026;2022-08-11T10:57:32;41.00;49.70
31133;DHT22;17779;50.942;4.026;2022-08-11T11:00:17;41.10;49.70
31133;DHT22;17779;50.942;4.026;2022-08-11T11:02:43;39.90;50.70
31133;DHT22;17779;50.942;4.026;2022-08-11T11:07:35;41.40;49.40
31133;DHT22;17779;50.942;4.026;2022-08-11T11:10:03;41.40;49.70
31133;DHT22;17779;50.942;4.026;2022-08-11T11:12:33;42.30;49.00
31133;DHT22;17779;50.942;4.026;2022-08-11T11:15:18;42.00;48.60
31133;DHT22;17779;50.942;4.026;2022-08-11T11:18:07;39.70;49.70
31133;DHT22;17779;50.942;4.026;2022-08-11T11:20:42;39.80;49.40
31133;DHT22;17779;50.942;4.026;2022-08-11T11:23:15;41.40;48.90
31133;DHT22;17779;50.942;4.026;2022-08-11T11:25:45;42.30;47.70
31133;DHT22;17779;50.942;4.026;2022-08-11T11:28:49;42.50;47.70
31133;DHT22;17779;50.942;4.026;2022-08-11T11:36:33;43.00;46.80
31133;DHT22;17779;50.942;4.026;2022-08-11T11:39:04;41.40;47.10
31133;DHT22;17779;50.942;4.026;2022-08-11T11:41:30;40.80;48.40
31133;DHT22;17779;50.942;4.026;2022-08-11T11:43:56;39.30;48.80
31133;DHT22;17779;50.942;4.026;2022-08-11T11:46:23;40.30;49.10
31133;DHT22;17779;50.942;4.026;2022-08-11T11:48:51;42.30;47.90
31133;DHT22;17779;50.942;4.026;2022-08-11T11:51:17;41.50;47.50
31133;DHT22;17779;50.942;4.026;2022-08-11T11:53:44;38.30;49.50
31133;DHT22;17779;50.942;4.026;2022-08-11T11:56:11;38.70;50.30
31133;DHT22;17779;50.942;4.026;2022-08-11T11:58:37;39.70;48.80
31133;DHT22;17779;50.942;4.026;2022-08-11T12:01:22;41.20;47.70
31133;DHT22;17779;50.942;4.026;2022-08-11T12:03:50;40.00;48.20
31133;DHT22;17779;50.942;4.026;2022-08-11T12:06:17;40.00;48.70
31133;DHT22;17779;50.942;4.026;2022-08-11T12:08:44;41.40;48.40
31133;DHT22;17779;50.942;4.026;2022-08-11T12:11:12;40.60;47.40
31133;DHT22;17779;50.942;4.026;2022-08-11T12:13:57;39.90;48.00
31133;DHT22;17779;50.942;4.026;2022-08-11T12:16:24;40.70;47.70
31133;DHT22;17779;50.942;4.026;2022-08-11T12:18:51;41.10;47.60
31133;DHT22;17779;50.942;4.026;2022-08-11T12:21:17;42.10;46.80
31133;DHT22;17779;50.942;4.026;2022-08-11T12:23:44;41.00;47.10
31133;DHT22;17779;50.942;4.026;2022-08-11T12:26:29;41.80;46.70
31133;DHT22;17779;50.942;4.026;2022-08-11T12:29:14;41.70;46.50
31133;DHT22;17779;50.942;4.026;2022-08-11T12:31:41;42.30;46.20
31133;DHT22;17779;50.942;4.026;2022-08-11T12:34:09;42.90;46.30
31133;DHT22;17779;50.942;4.026;2022-08-11T12:36:36;42.50;45.60
31133;DHT22;17779;50.942;4.026;2022-08-11T12:39:08;42.60;45.30
31133;DHT22;17779;50.942;4.026;2022-08-11T12:41:34;40.80;46.50
31133;DHT22;17779;50.942;4.026;2022-08-11T12:44:18;42.70;46.20
31133;DHT22;17779;50.942;4.026;2022-08-11T12:47:15;42.00;45.90
31133;DHT22;17779;50.942;4.026;2022-08-11T12:49:46;42.20;46.50
31133;DHT22;17779;50.942;4.026;2022-08-11T12:52:33;41.30;46.40
31133;DHT22;17779;50.942;4.026;2022-08-11T12:57:35;41.20;46.00
31133;DHT22;17779;50.942;4.026;2022-08-11T13:00:20;40.50;46.20
31133;DHT22;17779;50.942;4.026;2022-08-11T13:03:05;40.70;46.20
31133;DHT22;17779;50.942;4.026;2022-08-11T13:05:51;37.60;48.60
31133;DHT22;17779;50.942;4.026;2022-08-11T13:08:18;36.90;49.70
31133;DHT22;17779;50.942;4.026;2022-08-11T13:10:44;35.30;51.20
31133;DHT22;17779;50.942;4.026;2022-08-11T13:13:29;34.60;51.50
31133;DHT22;17779;50.942;4.026;2022-08-11T13:15:55;34.70;52.30
31133;DHT22;17779;50.942;4.026;2022-08-11T13:18:21;34.40;52.40
31133;DHT22;17779;50.942;4.026;2022-08-11T13:20:48;33.80;53.50
31133;DHT22;17779;50.942;4.026;2022-08-11T13:23:16;34.00;53.50
31133;DHT22;17779;50.942;4.026;2022-08-11T13:25:42;33.70;53.60
31133;DHT22;17779;50.942;4.026;2022-08-11T13:28:08;33.70;53.50
31133;DHT22;17779;50.942;4.026;2022-08-11T13:30:35;33.40;54.00
31133;DHT22;17779;50.942;4.026;2022-08-11T13:33:19;32.80;54.50
31133;DHT22;17779;50.942;4.026;2022-08-11T13:35:45;32.70;55.60
31133;DHT22;17779;50.942;4.026;2022-08-11T13:38:13;32.70;55.60
31133;DHT22;17779;50.942;4.026;2022-08-11T13:40:40;33.10;55.20
31133;DHT22;17779;50.942;4.026;2022-08-11T13:43:06;32.80;54.40
31133;DHT22;17779;50.942;4.026;2022-08-11T13:45:33;32.80;54.50
31133;DHT22;17779;50.942;4.026;2022-08-11T13:48:00;32.90;54.00
31133;DHT22;17779;50.942;4.026;2022-08-11T13:50:27;33.10;53.30
31133;DHT22;17779;50.942;4.026;2022-08-11T13:53:13;33.10;53.30
31133;DHT22;17779;50.942;4.026;2022-08-11T13:55:39;33.20;53.60
31133;DHT22;17779;50.942;4.026;2022-08-11T13:58:06;33.00;53.20
31133;DHT22;17779;50.942;4.026;2022-08-11T14:00:34;33.40;53.10
31133;DHT22;17779;50.942;4.026;2022-08-11T14:03:00;33.50;53.20
31133;DHT22;17779;50.942;4.026;2022-08-11T14:05:48;33.70;52.90
31133;DHT22;17779;50.942;4.026;2022-08-11T14:08:15;33.10;52.30
31133;DHT22;17779;50.942;4.026;2022-08-11T14:10:42;32.60;53.20
31133;DHT22;17779;50.942;4.026;2022-08-11T14:13:13;32.80;53.30
31133;DHT22;17779;50.942;4.026;2022-08-11T14:16:02;33.10;52.40
31133;DHT22;17779;50.942;4.026;2022-08-11T14:18:30;33.50;51.80
31133;DHT22;17779;50.942;4.026;2022-08-11T14:20:57;33.40;51.60
31133;DHT22;17779;50.942;4.026;2022-08-11T14:23:46;33.20;51.70
31133;DHT22;17779;50.942;4.026;2022-08-11T14:26:14;33.20;50.50
31133;DHT22;17779;50.942;4.026;2022-08-11T14:28:53;33.20;50.50
31133;DHT22;17779;50.942;4.026;2022-08-11T14:31:20;32.90;50.30
31133;DHT22;17779;50.942;4.026;2022-08-11T14:33:46;32.90;50.50
31133;DHT22;17779;50.942;4.026;2022-08-11T14:36:12;33.00;50.50
31133;DHT22;17779;50.942;4.026;2022-08-11T14:38:38;32.60;51.00
31133;DHT22;17779;50.942;4.026;2022-08-11T14:41:05;32.30;51.10
31133;DHT22;17779;50.942;4.026;2022-08-11T14:43:49;32.60;51.50
31133;DHT22;17779;50.942;4.026;2022-08-11T14:46:34;32.60;51.00
31133;DHT22;17779;50.942;4.026;2022-08-11T14:49:19;32.60;50.90
31133;DHT22;17779;50.942;4.026;2022-08-11T14:51:46;32.60;51.40
31133;DHT22;17779;50.942;4.026;2022-08-11T14:54:12;32.50;51.20
31133;DHT22;17779;50.942;4.026;2022-08-11T14:56:57;32.60;51.00
31133;DHT22;17779;50.942;4.026;2022-08-11T14:59:24;32.60;51.50
31133;DHT22;17779;50.942;4.026;2022-08-11T15:01:50;32.50;51.50
31133;DHT22;17779;50.942;4.026;2022-08-11T15:04:34;32.40;51.70
31133;DHT22;17779;50.942;4.026;2022-08-11T15:07:00;32.40;51.90
31133;DHT22;17779;50.942;4.026;2022-08-11T15:09:25;32.30;52.30
31133;DHT22;17779;50.942;4.026;2022-08-11T15:11:51;32.40;52.00
31133;DHT22;17779;50.942;4.026;2022-08-11T15:14:46;32.70;52.00
31133;DHT22;17779;50.942;4.026;2022-08-11T15:17:30;32.70;52.00
31133;DHT22;17779;50.942;4.026;2022-08-11T15:20:07;32.60;52.20
31133;DHT22;17779;50.942;4.026;2022-08-11T15:22:52;32.70;52.20
31133;DHT22;17779;50.942;4.026;2022-08-11T15:25:36;32.60;52.50
31133;DHT22;17779;50.942;4.026;2022-08-11T15:28:03;32.50;51.90
31133;DHT22;17779;50.942;4.026;2022-08-11T15:30:50;32.50;52.00
31133;DHT22;17779;50.942;4.026;2022-08-11T15:33:35;32.50;51.10
31133;DHT22;17779;50.942;4.026;2022-08-11T15:36:21;32.50;51.30
31133;DHT22;17779;50.942;4.026;2022-08-11T15:39:08;32.20;51.70
31133;DHT22;17779;50.942;4.026;2022-08-11T15:41:45;32.20;51.80
31133;DHT22;17779;50.942;4.026;2022-08-11T15:44:32;32.30;52.00
31133;DHT22;17779;50.942;4.026;2022-08-11T15:47:17;32.30;52.00
31133;DHT22;17779;50.942;4.026;2022-08-11T15:49:44;32.20;51.90
31133;DHT22;17779;50.942;4.026;2022-08-11T15:52:14;32.30;52.30
31133;DHT22;17779;50.942;4.026;2022-08-11T15:54:41;32.30;52.20
31133;DHT22;17779;50.942;4.026;2022-08-11T15:57:07;32.20;52.10
31133;DHT22;17779;50.942;4.026;2022-08-11T15:59:54;32.20;52.40
31133;DHT22;17779;50.942;4.026;2022-08-11T16:02:39;32.40;52.60
31133;DHT22;17779;50.942;4.026;2022-08-11T16:05:21;32.30;53.00
31133;DHT22;17779;50.942;4.026;2022-08-11T16:07:47;32.30;53.00
31133;DHT22;17779;50.942;4.026;2022-08-11T16:10:17;32.40;53.20
31133;DHT22;17779;50.942;4.026;2022-08-11T16:12:47;32.40;53.30
31133;DHT22;17779;50.942;4.026;2022-08-11T16:15:48;32.40;53.10
31133;DHT22;17779;50.942;4.026;2022-08-11T16:18:45;32.30;53.40
31133;DHT22;17779;50.942;4.026;2022-08-11T16:21:20;32.20;53.70
31133;DHT22;17779;50.942;4.026;2022-08-11T16:23:49;32.10;53.80
31133;DHT22;17779;50.942;4.026;2022-08-11T16:26:17;31.90;53.80
31133;DHT22;17779;50.942;4.026;2022-08-11T16:28:44;31.80;54.30
31133;DHT22;17779;50.942;4.026;2022-08-11T16:31:11;31.90;54.70
31133;DHT22;17779;50.942;4.026;2022-08-11T16:33:40;31.90;54.60
31133;DHT22;17779;50.942;4.026;2022-08-11T16:36:09;32.00;54.80
31133;DHT22;17779;50.942;4.026;2022-08-11T16:38:54;31.80;55.00
31133;DHT22;17779;50.942;4.026;2022-08-11T16:41:21;31.90;55.20
31133;DHT22;17779;50.942;4.026;2022-08-11T16:44:06;31.90;55.30
31133;DHT22;17779;50.942;4.026;2022-08-11T16:46:52;31.70;55.50
31133;DHT22;17779;50.942;4.026;2022-08-11T16:49:25;31.70;55.70
31133;DHT22;17779;50.942;4.026;2022-08-11T16:51:53;31.60;55.80
31133;DHT22;17779;50.942;4.026;2022-08-11T16:54:19;31.60;56.00
31133;DHT22;17779;50.942;4.026;2022-08-11T16:56:48;31.70;56.00
31133;DHT22;17779;50.942;4.026;2022-08-11T16:59:17;31.70;55.60
31133;DHT22;17779;50.942;4.026;2022-08-11T17:01:45;31.60;55.40
31133;DHT22;17779;50.942;4.026;2022-08-11T17:04:15;31.50;55.30
31133;DHT22;17779;50.942;4.026;2022-08-11T17:07:00;31.50;55.30
31133;DHT22;17779;50.942;4.026;2022-08-11T17:09:46;31.50;55.20
31133;DHT22;17779;50.942;4.026;2022-08-11T17:12:31;31.40;55.50
31133;DHT22;17779;50.942;4.026;2022-08-11T17:15:17;31.40;55.30
31133;DHT22;17779;50.942;4.026;2022-08-11T17:18:02;31.40;55.10
31133;DHT22;17779;50.942;4.026;2022-08-11T17:20:29;31.40;55.00
31133;DHT22;17779;50.942;4.026;2022-08-11T17:22:55;31.30;55.30
31133;DHT22;17779;50.942;4.026;2022-08-11T17:25:40;31.30;55.10
31133;DHT22;17779;50.942;4.026;2022-08-11T17:28:06;31.30;55.40
31133;DHT22;17779;50.942;4.026;2022-08-11T17:30:33;31.30;55.40
31133;DHT22;17779;50.942;4.026;2022-08-11T17:33:17;31.20;55.50
31133;DHT22;17779;50.942;4.026;2022-08-11T17:36:02;31.20;55.50
31133;DHT22;17779;50.942;4.026;2022-08-11T17:38:28;31.20;55.60
31133;DHT22;17779;50.942;4.026;2022-08-11T17:40:56;31.20;55.30
31133;DHT22;17779;50.942;4.026;2022-08-11T17:43:40;31.10;55.50
31133;DHT22;17779;50.942;4.026;2022-08-11T17:46:25;31.10;55.60
31133;DHT22;17779;50.942;4.026;2022-08-11T17:49:10;31.10;55.70
31133;DHT22;17779;50.942;4.026;2022-08-11T17:51:37;31.10;55.80
31133;DHT22;17779;50.942;4.026;2022-08-11T17:54:22;30.90;55.90
31133;DHT22;17779;50.942;4.026;2022-08-11T17:57:07;31.00;56.00
31133;DHT22;17779;50.942;4.026;2022-08-11T17:59:52;30.90;55.80
31133;DHT22;17779;50.942;4.026;2022-08-11T18:02:23;30.90;55.80
31133;DHT22;17779;50.942;4.026;2022-08-11T18:05:08;30.80;55.80
31133;DHT22;17779;50.942;4.026;2022-08-11T18:07:37;30.70;56.10
31133;DHT22;17779;50.942;4.026;2022-08-11T18:10:25;30.80;56.30
31133;DHT22;17779;50.942;4.026;2022-08-11T18:13:11;30.60;56.50
31133;DHT22;17779;50.942;4.026;2022-08-11T18:15:56;30.60;56.80
31133;DHT22;17779;50.942;4.026;2022-08-11T18:18:40;30.60;56.80
31133;DHT22;17779;50.942;4.026;2022-08-11T18:21:25;30.60;56.90
31133;DHT22;17779;50.942;4.026;2022-08-11T18:24:11;30.50;57.30
31133;DHT22;17779;50.942;4.026;2022-08-11T18:26:58;30.40;57.70
31133;DHT22;17779;50.942;4.026;2022-08-11T18:29:43;30.30;57.70
31133;DHT22;17779;50.942;4.026;2022-08-11T18:32:28;30.30;58.00
31133;DHT22;17779;50.942;4.026;2022-08-11T18:35:14;30.20;58.00
31133;DHT22;17779;50.942;4.026;2022-08-11T18:37:59;30.10;58.50
31133;DHT22;17779;50.942;4.026;2022-08-11T18:40:47;30.00;58.70
31133;DHT22;17779;50.942;4.026;2022-08-11T18:43:34;29.90;59.00
31133;DHT22;17779;50.942;4.026;2022-08-11T18:46:20;29.80;59.30
31133;DHT22;17779;50.942;4.026;2022-08-11T18:49:10;29.70;59.60
31133;DHT22;17779;50.942;4.026;2022-08-11T18:51:54;29.70;59.90
31133;DHT22;17779;50.942;4.026;2022-08-11T18:54:40;29.50;60.20
31133;DHT22;17779;50.942;4.026;2022-08-11T18:57:26;29.50;60.50
31133;DHT22;17779;50.942;4.026;2022-08-11T19:00:10;29.50;61.00
31133;DHT22;17779;50.942;4.026;2022-08-11T19:02:55;29.40;61.20
31133;DHT22;17779;50.942;4.026;2022-08-11T19:05:40;29.30;61.60
31133;DHT22;17779;50.942;4.026;2022-08-11T19:08:34;29.20;62.10
31133;DHT22;17779;50.942;4.026;2022-08-11T19:11:19;29.10;62.40
31133;DHT22;17779;50.942;4.026;2022-08-11T19:14:03;29.00;62.90
31133;DHT22;17779;50.942;4.026;2022-08-11T19:16:48;28.80;63.20
31133;DHT22;17779;50.942;4.026;2022-08-11T19:19:32;28.80;63.70
31133;DHT22;17779;50.942;4.026;2022-08-11T19:22:17;28.80;64.10
31133;DHT22;17779;50.942;4.026;2022-08-11T19:25:03;28.80;64.20
31133;DHT22;17779;50.942;4.026;2022-08-11T19:27:48;28.70;64.70
31133;DHT22;17779;50.942;4.026;2022-08-11T19:30:33;28.50;64.60
31133;DHT22;17779;50.942;4.026;2022-08-11T19:33:17;28.40;65.00